Aérodrome :
LOGIN :

S'inscrire | Disclaimer

   EN    FR    IT 

 










Légende :    VFR   VFR Marginal   IFR   IFR Intensif   IFR Très Intensif
Visi : 
Plafond : 
>= 8 km
>= 3000ft
5 à 8 km
1000 à 3000 ft
1500m à 5 km
500 à 1000 ft
800 à 1500m
200 à 500 ft
< 800m
< 200 ft
Symboles :   Orages  Brouillard  Fortes neiges  Fortes précipitations  Vent > 20 kt
SIGMETs :   Divers  Orages  Givrage  Turbulence  Onde Orograph.  Cendres Volcan.






- Altitude de l'aérodrome : 124 ft
- Code IATA : AVN


LFMV - Avignon Caumont

DERNIER METAR :
  • 032000Z AUTO 17009KT 9999 BKN040 OVC140 21/16 Q1006 NOSIG

METARs EXPIRÉS :
  • 031930Z AUTO 16008KT 9999 FEW029 OVC140 21/16 Q1005 NOSIG
  • 031900Z AUTO 17008KT CAVOK 21/15 Q1006 NOSIG
  • 031830Z AUTO 16010KT CAVOK 22/16 Q1006 NOSIG
  • 031800Z AUTO 16010KT 9999 SCT028 OVC180 22/16 Q1006 NOSIG
  • 031730Z AUTO 16009KT 130V190 9999 SCT030 BKN160 BKN190 22/16 Q1005 NOSIG

TAF TAF LFMV
Valide du 03 à 15h jusqu'au 04 à 15h UTC


031400Z 0315/0415 18010KT CAVOK
TEMPO 0323/0415 4000 SHRA BKN014 BKN030TCU
TEMPO 0323/0415 1000 TSRA BKN010 BKN020CB
BECMG 0404/0406 09010KT
BECMG 0408/0411 VRB03KT
ATIS : +33 4 90 84 32 84



MET'MAP, la Météo Aéronautique d'un coup d'oeil ! - Copyright ORBIFLY Décembre 2007 - Disclaimer

ORBIFLY MET'MAP TEAM :

Programmation & Développement : Alexandra Zaïnal
Sur une idée originale de : Baudouin d'Aumeries
Assistance à la programmation : Marc-Olivier Méhu
Soutien technique & logistique : Manuel Goepfert

Contact : metmap@orbifly.com




SOURCES & CREDITS :

   NOAA